sensor_id;sensor_type;location;lat;lon;timestamp;P1;durP1;ratioP1;P2;durP2;ratioP2
4232;SDS011;2130;48.472;11.934;2022-12-17T00:00:04;17.13;;;5.50;;
4232;SDS011;2130;48.472;11.934;2022-12-17T00:02:55;17.30;;;5.27;;
4232;SDS011;2130;48.472;11.934;2022-12-17T00:05:52;18.97;;;5.07;;
4232;SDS011;2130;48.472;11.934;2022-12-17T00:08:39;17.83;;;5.60;;
4232;SDS011;2130;48.472;11.934;2022-12-17T00:11:30;16.17;;;5.03;;
4232;SDS011;2130;48.472;11.934;2022-12-17T00:14:40;17.43;;;6.33;;
4232;SDS011;2130;48.472;11.934;2022-12-17T00:17:29;16.83;;;5.77;;
4232;SDS011;2130;48.472;11.934;2022-12-17T00:20:18;20.57;;;6.07;;
4232;SDS011;2130;48.472;11.934;2022-12-17T00:23:05;20.13;;;6.77;;
4232;SDS011;2130;48.472;11.934;2022-12-17T00:25:54;16.20;;;6.40;;
4232;SDS011;2130;48.472;11.934;2022-12-17T00:28:45;16.47;;;6.10;;
4232;SDS011;2130;48.472;11.934;2022-12-17T00:31:55;14.97;;;4.90;;
4232;SDS011;2130;48.472;11.934;2022-12-17T00:34:49;18.97;;;5.83;;
4232;SDS011;2130;48.472;11.934;2022-12-17T00:37:36;24.43;;;6.90;;
4232;SDS011;2130;48.472;11.934;2022-12-17T00:40:23;15.57;;;5.30;;
4232;SDS011;2130;48.472;11.934;2022-12-17T00:43:15;19.70;;;6.60;;
4232;SDS011;2130;48.472;11.934;2022-12-17T00:46:27;17.67;;;5.30;;
4232;SDS011;2130;48.472;11.934;2022-12-17T00:49:24;16.33;;;5.63;;
4232;SDS011;2130;48.472;11.934;2022-12-17T00:52:18;18.90;;;6.00;;
4232;SDS011;2130;48.472;11.934;2022-12-17T00:55:05;15.40;;;5.60;;
4232;SDS011;2130;48.472;11.934;2022-12-17T00:57:59;16.90;;;5.67;;
4232;SDS011;2130;48.472;11.934;2022-12-17T01:00:58;17.10;;;5.00;;
4232;SDS011;2130;48.472;11.934;2022-12-17T01:03:48;17.53;;;4.60;;
4232;SDS011;2130;48.472;11.934;2022-12-17T01:06:39;22.63;;;6.07;;
4232;SDS011;2130;48.472;11.934;2022-12-17T01:09:29;22.57;;;6.17;;
4232;SDS011;2130;48.472;11.934;2022-12-17T01:12:19;20.83;;;6.00;;
4232;SDS011;2130;48.472;11.934;2022-12-17T01:15:14;18.73;;;5.77;;
4232;SDS011;2130;48.472;11.934;2022-12-17T01:18:25;14.53;;;4.90;;
4232;SDS011;2130;48.472;11.934;2022-12-17T01:21:14;18.37;;;6.07;;
4232;SDS011;2130;48.472;11.934;2022-12-17T01:24:18;19.90;;;5.90;;
4232;SDS011;2130;48.472;11.934;2022-12-17T01:27:13;17.90;;;5.80;;
4232;SDS011;2130;48.472;11.934;2022-12-17T01:30:16;19.60;;;5.83;;
4232;SDS011;2130;48.472;11.934;2022-12-17T01:33:08;17.53;;;5.60;;
4232;SDS011;2130;48.472;11.934;2022-12-17T01:36:07;16.80;;;5.53;;
4232;SDS011;2130;48.472;11.934;2022-12-17T01:38:57;19.37;;;5.93;;
4232;SDS011;2130;48.472;11.934;2022-12-17T01:41:49;15.17;;;4.50;;
4232;SDS011;2130;48.472;11.934;2022-12-17T01:44:45;20.73;;;7.60;;
4232;SDS011;2130;48.472;11.934;2022-12-17T01:47:45;18.73;;;5.90;;
4232;SDS011;2130;48.472;11.934;2022-12-17T01:50:51;23.60;;;6.17;;
4232;SDS011;2130;48.472;11.934;2022-12-17T01:53:51;18.80;;;7.10;;
4232;SDS011;2130;48.472;11.934;2022-12-17T02:00:35;18.73;;;5.50;;
4232;SDS011;2130;48.472;11.934;2022-12-17T02:03:43;19.30;;;6.30;;
4232;SDS011;2130;48.472;11.934;2022-12-17T02:06:42;26.80;;;7.27;;
4232;SDS011;2130;48.472;11.934;2022-12-17T02:10:30;17.10;;;4.90;;
4232;SDS011;2130;48.472;11.934;2022-12-17T02:13:30;18.27;;;4.77;;
4232;SDS011;2130;48.472;11.934;2022-12-17T02:16:29;17.70;;;5.33;;
4232;SDS011;2130;48.472;11.934;2022-12-17T02:19:26;15.00;;;5.27;;
4232;SDS011;2130;48.472;11.934;2022-12-17T02:22:23;17.77;;;5.53;;
4232;SDS011;2130;48.472;11.934;2022-12-17T02:25:24;17.83;;;5.63;;
4232;SDS011;2130;48.472;11.934;2022-12-17T02:28:22;17.07;;;5.43;;
4232;SDS011;2130;48.472;11.934;2022-12-17T02:31:18;15.53;;;4.70;;
4232;SDS011;2130;48.472;11.934;2022-12-17T02:34:18;22.63;;;6.37;;
4232;SDS011;2130;48.472;11.934;2022-12-17T02:37:30;22.27;;;6.67;;
4232;SDS011;2130;48.472;11.934;2022-12-17T02:40:21;18.80;;;5.97;;
4232;SDS011;2130;48.472;11.934;2022-12-17T02:43:11;19.97;;;5.50;;
4232;SDS011;2130;48.472;11.934;2022-12-17T02:49:02;22.00;;;6.50;;
4232;SDS011;2130;48.472;11.934;2022-12-17T02:51:52;18.40;;;6.03;;
4232;SDS011;2130;48.472;11.934;2022-12-17T02:54:42;19.63;;;6.80;;
4232;SDS011;2130;48.472;11.934;2022-12-17T02:57:36;19.20;;;5.77;;
4232;SDS011;2130;48.472;11.934;2022-12-17T03:00:28;16.73;;;6.00;;
4232;SDS011;2130;48.472;11.934;2022-12-17T03:03:16;21.13;;;5.87;;
4232;SDS011;2130;48.472;11.934;2022-12-17T03:06:10;24.13;;;6.73;;
4232;SDS011;2130;48.472;11.934;2022-12-17T03:09:06;22.13;;;5.33;;
4232;SDS011;2130;48.472;11.934;2022-12-17T03:11:57;17.37;;;5.50;;
4232;SDS011;2130;48.472;11.934;2022-12-17T03:14:44;21.90;;;5.90;;
4232;SDS011;2130;48.472;11.934;2022-12-17T03:17:31;20.50;;;6.50;;
4232;SDS011;2130;48.472;11.934;2022-12-17T03:20:26;27.77;;;6.37;;
4232;SDS011;2130;48.472;11.934;2022-12-17T03:23:17;17.43;;;5.50;;
4232;SDS011;2130;48.472;11.934;2022-12-17T03:26:19;18.27;;;5.87;;
4232;SDS011;2130;48.472;11.934;2022-12-17T03:29:22;21.50;;;6.10;;
4232;SDS011;2130;48.472;11.934;2022-12-17T03:32:21;18.73;;;5.90;;
4232;SDS011;2130;48.472;11.934;2022-12-17T03:35:17;17.37;;;5.60;;
4232;SDS011;2130;48.472;11.934;2022-12-17T03:38:07;16.70;;;5.10;;
4232;SDS011;2130;48.472;11.934;2022-12-17T03:41:13;19.40;;;4.80;;
4232;SDS011;2130;48.472;11.934;2022-12-17T03:44:05;25.93;;;5.20;;
4232;SDS011;2130;48.472;11.934;2022-12-17T03:46:52;19.03;;;6.33;;
4232;SDS011;2130;48.472;11.934;2022-12-17T03:49:45;22.00;;;5.10;;
4232;SDS011;2130;48.472;11.934;2022-12-17T03:52:43;30.13;;;5.60;;
4232;SDS011;2130;48.472;11.934;2022-12-17T03:55:36;24.10;;;6.43;;
4232;SDS011;2130;48.472;11.934;2022-12-17T03:58:30;20.83;;;5.83;;
4232;SDS011;2130;48.472;11.934;2022-12-17T04:01:34;24.10;;;4.73;;
4232;SDS011;2130;48.472;11.934;2022-12-17T04:04:44;16.60;;;4.33;;
4232;SDS011;2130;48.472;11.934;2022-12-17T04:07:43;19.80;;;5.80;;
4232;SDS011;2130;48.472;11.934;2022-12-17T04:10:34;21.10;;;5.80;;
4232;SDS011;2130;48.472;11.934;2022-12-17T04:13:26;18.63;;;5.90;;
4232;SDS011;2130;48.472;11.934;2022-12-17T04:16:19;27.13;;;6.10;;
4232;SDS011;2130;48.472;11.934;2022-12-17T04:19:12;19.23;;;5.37;;
4232;SDS011;2130;48.472;11.934;2022-12-17T04:22:04;22.70;;;5.47;;
4232;SDS011;2130;48.472;11.934;2022-12-17T04:24:59;18.17;;;5.10;;
4232;SDS011;2130;48.472;11.934;2022-12-17T04:27:47;20.37;;;5.40;;
4232;SDS011;2130;48.472;11.934;2022-12-17T04:30:33;20.30;;;5.30;;
4232;SDS011;2130;48.472;11.934;2022-12-17T04:33:20;18.87;;;5.73;;
4232;SDS011;2130;48.472;11.934;2022-12-17T04:36:15;18.77;;;5.50;;
4232;SDS011;2130;48.472;11.934;2022-12-17T04:39:02;20.20;;;5.80;;
4232;SDS011;2130;48.472;11.934;2022-12-17T04:42:01;19.23;;;5.67;;
4232;SDS011;2130;48.472;11.934;2022-12-17T04:44:58;23.83;;;6.97;;
4232;SDS011;2130;48.472;11.934;2022-12-17T04:47:48;20.13;;;5.10;;
4232;SDS011;2130;48.472;11.934;2022-12-17T04:50:35;21.30;;;5.50;;
4232;SDS011;2130;48.472;11.934;2022-12-17T04:53:27;17.10;;;5.30;;
4232;SDS011;2130;48.472;11.934;2022-12-17T04:56:44;19.60;;;6.60;;
4232;SDS011;2130;48.472;11.934;2022-12-17T04:59:37;22.70;;;6.70;;
4232;SDS011;2130;48.472;11.934;2022-12-17T05:02:24;29.40;;;6.77;;
4232;SDS011;2130;48.472;11.934;2022-12-17T05:05:14;19.07;;;5.40;;
4232;SDS011;2130;48.472;11.934;2022-12-17T05:08:01;22.73;;;5.17;;
4232;SDS011;2130;48.472;11.934;2022-12-17T05:11:14;20.33;;;6.73;;
4232;SDS011;2130;48.472;11.934;2022-12-17T05:14:01;16.47;;;4.37;;
4232;SDS011;2130;48.472;11.934;2022-12-17T05:16:48;18.13;;;4.80;;
4232;SDS011;2130;48.472;11.934;2022-12-17T05:19:39;18.53;;;5.90;;
4232;SDS011;2130;48.472;11.934;2022-12-17T05:22:29;21.97;;;5.30;;
4232;SDS011;2130;48.472;11.934;2022-12-17T05:25:16;17.63;;;5.70;;
4232;SDS011;2130;48.472;11.934;2022-12-17T05:28:14;19.97;;;5.60;;
4232;SDS011;2130;48.472;11.934;2022-12-17T05:31:08;16.40;;;5.67;;
4232;SDS011;2130;48.472;11.934;2022-12-17T05:34:48;26.37;;;5.57;;
4232;SDS011;2130;48.472;11.934;2022-12-17T05:37:40;22.73;;;7.40;;
4232;SDS011;2130;48.472;11.934;2022-12-17T05:41:04;20.83;;;5.70;;
4232;SDS011;2130;48.472;11.934;2022-12-17T05:44:00;26.80;;;6.80;;
4232;SDS011;2130;48.472;11.934;2022-12-17T05:46:53;20.73;;;6.70;;
4232;SDS011;2130;48.472;11.934;2022-12-17T05:49:43;17.93;;;5.17;;
4232;SDS011;2130;48.472;11.934;2022-12-17T05:52:31;19.70;;;6.10;;
4232;SDS011;2130;48.472;11.934;2022-12-17T05:55:31;21.47;;;6.40;;
4232;SDS011;2130;48.472;11.934;2022-12-17T05:58:18;21.27;;;6.80;;
4232;SDS011;2130;48.472;11.934;2022-12-17T06:01:05;23.90;;;6.70;;
4232;SDS011;2130;48.472;11.934;2022-12-17T06:03:54;25.23;;;5.87;;
4232;SDS011;2130;48.472;11.934;2022-12-17T06:06:41;21.13;;;5.90;;
4232;SDS011;2130;48.472;11.934;2022-12-17T06:09:32;17.90;;;4.90;;
4232;SDS011;2130;48.472;11.934;2022-12-17T06:12:21;18.80;;;6.00;;
4232;SDS011;2130;48.472;11.934;2022-12-17T06:15:10;20.60;;;6.77;;
4232;SDS011;2130;48.472;11.934;2022-12-17T06:17:57;20.20;;;5.60;;
4232;SDS011;2130;48.472;11.934;2022-12-17T06:23:51;20.27;;;6.20;;
4232;SDS011;2130;48.472;11.934;2022-12-17T06:27:09;23.80;;;5.43;;
4232;SDS011;2130;48.472;11.934;2022-12-17T06:30:09;19.07;;;5.60;;
4232;SDS011;2130;48.472;11.934;2022-12-17T06:34:21;20.93;;;6.10;;
4232;SDS011;2130;48.472;11.934;2022-12-17T06:37:10;23.87;;;6.73;;
4232;SDS011;2130;48.472;11.934;2022-12-17T06:40:08;23.20;;;6.20;;
4232;SDS011;2130;48.472;11.934;2022-12-17T06:43:16;21.50;;;6.13;;
4232;SDS011;2130;48.472;11.934;2022-12-17T06:46:08;25.57;;;5.30;;
4232;SDS011;2130;48.472;11.934;2022-12-17T06:48:58;19.43;;;6.00;;
4232;SDS011;2130;48.472;11.934;2022-12-17T06:51:44;20.00;;;7.03;;
4232;SDS011;2130;48.472;11.934;2022-12-17T06:54:48;22.67;;;7.27;;
4232;SDS011;2130;48.472;11.934;2022-12-17T06:57:54;19.40;;;6.57;;
4232;SDS011;2130;48.472;11.934;2022-12-17T07:00:50;21.60;;;5.53;;
4232;SDS011;2130;48.472;11.934;2022-12-17T07:03:52;23.13;;;6.47;;
4232;SDS011;2130;48.472;11.934;2022-12-17T07:06:46;23.00;;;6.80;;
4232;SDS011;2130;48.472;11.934;2022-12-17T07:09:44;21.13;;;6.83;;
4232;SDS011;2130;48.472;11.934;2022-12-17T07:15:57;22.40;;;6.77;;
4232;SDS011;2130;48.472;11.934;2022-12-17T07:19:05;24.03;;;6.00;;
4232;SDS011;2130;48.472;11.934;2022-12-17T07:22:27;20.20;;;6.00;;
4232;SDS011;2130;48.472;11.934;2022-12-17T07:25:44;17.40;;;5.40;;
4232;SDS011;2130;48.472;11.934;2022-12-17T07:29:12;19.43;;;5.97;;
4232;SDS011;2130;48.472;11.934;2022-12-17T07:33:00;20.10;;;6.20;;
4232;SDS011;2130;48.472;11.934;2022-12-17T07:36:05;28.03;;;8.60;;
4232;SDS011;2130;48.472;11.934;2022-12-17T07:39:01;24.33;;;6.80;;
4232;SDS011;2130;48.472;11.934;2022-12-17T07:42:34;20.67;;;7.73;;
4232;SDS011;2130;48.472;11.934;2022-12-17T07:45:44;20.20;;;7.00;;
4232;SDS011;2130;48.472;11.934;2022-12-17T07:48:52;19.97;;;6.13;;
4232;SDS011;2130;48.472;11.934;2022-12-17T07:52:00;21.60;;;5.83;;
4232;SDS011;2130;48.472;11.934;2022-12-17T07:54:50;22.13;;;6.83;;
4232;SDS011;2130;48.472;11.934;2022-12-17T07:58:00;18.90;;;6.00;;
4232;SDS011;2130;48.472;11.934;2022-12-17T08:00:52;23.40;;;7.73;;
4232;SDS011;2130;48.472;11.934;2022-12-17T08:03:55;20.80;;;7.00;;
4232;SDS011;2130;48.472;11.934;2022-12-17T08:07:09;19.63;;;6.07;;
4232;SDS011;2130;48.472;11.934;2022-12-17T08:09:56;21.30;;;6.90;;
4232;SDS011;2130;48.472;11.934;2022-12-17T08:13:01;17.73;;;5.33;;
4232;SDS011;2130;48.472;11.934;2022-12-17T08:16:04;25.50;;;7.53;;
4232;SDS011;2130;48.472;11.934;2022-12-17T08:19:17;17.70;;;6.10;;
4232;SDS011;2130;48.472;11.934;2022-12-17T08:22:40;19.23;;;6.57;;
4232;SDS011;2130;48.472;11.934;2022-12-17T08:25:33;22.50;;;7.27;;
4232;SDS011;2130;48.472;11.934;2022-12-17T08:28:43;25.53;;;7.73;;
4232;SDS011;2130;48.472;11.934;2022-12-17T08:31:39;21.50;;;7.67;;
4232;SDS011;2130;48.472;11.934;2022-12-17T08:34:27;23.43;;;7.10;;
4232;SDS011;2130;48.472;11.934;2022-12-17T08:37:14;23.10;;;6.80;;
4232;SDS011;2130;48.472;11.934;2022-12-17T08:40:09;19.63;;;6.30;;
4232;SDS011;2130;48.472;11.934;2022-12-17T08:42:56;18.17;;;5.57;;
4232;SDS011;2130;48.472;11.934;2022-12-17T08:45:46;21.07;;;6.20;;
4232;SDS011;2130;48.472;11.934;2022-12-17T08:48:43;24.30;;;7.30;;
4232;SDS011;2130;48.472;11.934;2022-12-17T08:51:43;22.83;;;7.00;;
4232;SDS011;2130;48.472;11.934;2022-12-17T08:54:37;20.03;;;6.80;;
4232;SDS011;2130;48.472;11.934;2022-12-17T08:57:23;19.30;;;6.67;;
4232;SDS011;2130;48.472;11.934;2022-12-17T09:00:13;26.30;;;8.27;;
4232;SDS011;2130;48.472;11.934;2022-12-17T09:03:00;26.33;;;7.63;;
4232;SDS011;2130;48.472;11.934;2022-12-17T09:05:51;21.40;;;7.30;;
4232;SDS011;2130;48.472;11.934;2022-12-17T09:08:42;21.67;;;7.00;;
4232;SDS011;2130;48.472;11.934;2022-12-17T09:11:33;24.53;;;6.07;;
4232;SDS011;2130;48.472;11.934;2022-12-17T09:14:22;21.73;;;6.53;;
4232;SDS011;2130;48.472;11.934;2022-12-17T09:17:14;19.93;;;6.30;;
4232;SDS011;2130;48.472;11.934;2022-12-17T09:20:13;21.83;;;7.33;;
4232;SDS011;2130;48.472;11.934;2022-12-17T09:23:09;22.60;;;7.30;;
4232;SDS011;2130;48.472;11.934;2022-12-17T09:30:23;23.47;;;7.50;;
4232;SDS011;2130;48.472;11.934;2022-12-17T09:33:17;24.00;;;8.50;;
4232;SDS011;2130;48.472;11.934;2022-12-17T09:36:05;21.43;;;6.57;;
4232;SDS011;2130;48.472;11.934;2022-12-17T09:38:55;24.23;;;6.80;;
4232;SDS011;2130;48.472;11.934;2022-12-17T09:42:10;21.07;;;6.57;;
4232;SDS011;2130;48.472;11.934;2022-12-17T09:45:11;26.80;;;8.27;;
4232;SDS011;2130;48.472;11.934;2022-12-17T09:48:09;25.30;;;7.97;;
4232;SDS011;2130;48.472;11.934;2022-12-17T09:51:18;22.07;;;6.60;;
4232;SDS011;2130;48.472;11.934;2022-12-17T09:54:40;22.53;;;6.50;;
4232;SDS011;2130;48.472;11.934;2022-12-17T09:57:52;26.47;;;7.23;;
4232;SDS011;2130;48.472;11.934;2022-12-17T10:00:58;27.27;;;6.53;;
4232;SDS011;2130;48.472;11.934;2022-12-17T10:03:52;20.87;;;7.37;;
4232;SDS011;2130;48.472;11.934;2022-12-17T10:06:41;23.43;;;6.07;;
4232;SDS011;2130;48.472;11.934;2022-12-17T10:09:28;23.10;;;7.37;;
4232;SDS011;2130;48.472;11.934;2022-12-17T10:12:17;20.23;;;7.20;;
4232;SDS011;2130;48.472;11.934;2022-12-17T10:15:06;19.07;;;6.90;;
4232;SDS011;2130;48.472;11.934;2022-12-17T10:18:01;19.37;;;6.77;;
4232;SDS011;2130;48.472;11.934;2022-12-17T10:21:04;21.23;;;6.47;;
4232;SDS011;2130;48.472;11.934;2022-12-17T10:24:12;20.03;;;6.77;;
4232;SDS011;2130;48.472;11.934;2022-12-17T10:27:22;25.03;;;8.50;;
4232;SDS011;2130;48.472;11.934;2022-12-17T10:30:57;22.80;;;6.47;;
4232;SDS011;2130;48.472;11.934;2022-12-17T10:33:45;25.33;;;7.40;;
4232;SDS011;2130;48.472;11.934;2022-12-17T10:36:42;21.70;;;7.00;;
4232;SDS011;2130;48.472;11.934;2022-12-17T10:39:53;22.83;;;5.60;;
4232;SDS011;2130;48.472;11.934;2022-12-17T10:42:57;23.87;;;7.73;;
4232;SDS011;2130;48.472;11.934;2022-12-17T10:45:56;20.40;;;6.67;;
4232;SDS011;2130;48.472;11.934;2022-12-17T10:48:46;20.00;;;6.93;;
4232;SDS011;2130;48.472;11.934;2022-12-17T10:51:58;21.57;;;7.23;;
4232;SDS011;2130;48.472;11.934;2022-12-17T10:54:59;21.30;;;6.30;;
4232;SDS011;2130;48.472;11.934;2022-12-17T10:58:10;21.23;;;6.70;;
4232;SDS011;2130;48.472;11.934;2022-12-17T11:00:59;24.90;;;7.60;;
4232;SDS011;2130;48.472;11.934;2022-12-17T11:04:53;19.90;;;7.13;;
4232;SDS011;2130;48.472;11.934;2022-12-17T11:07:44;20.67;;;7.10;;
4232;SDS011;2130;48.472;11.934;2022-12-17T11:10:38;20.63;;;6.90;;
4232;SDS011;2130;48.472;11.934;2022-12-17T11:13:27;21.03;;;7.37;;
4232;SDS011;2130;48.472;11.934;2022-12-17T11:16:23;22.40;;;7.37;;
4232;SDS011;2130;48.472;11.934;2022-12-17T11:19:24;20.77;;;7.73;;
4232;SDS011;2130;48.472;11.934;2022-12-17T11:22:32;23.13;;;7.67;;
4232;SDS011;2130;48.472;11.934;2022-12-17T11:25:49;25.43;;;8.03;;
4232;SDS011;2130;48.472;11.934;2022-12-17T11:28:42;22.50;;;7.30;;
4232;SDS011;2130;48.472;11.934;2022-12-17T11:31:42;22.97;;;6.70;;
4232;SDS011;2130;48.472;11.934;2022-12-17T11:34:38;30.83;;;8.00;;
4232;SDS011;2130;48.472;11.934;2022-12-17T11:37:47;22.30;;;7.70;;
4232;SDS011;2130;48.472;11.934;2022-12-17T11:40:46;22.77;;;7.37;;
4232;SDS011;2130;48.472;11.934;2022-12-17T11:43:39;25.80;;;7.47;;
4232;SDS011;2130;48.472;11.934;2022-12-17T11:46:32;23.87;;;8.40;;
4232;SDS011;2130;48.472;11.934;2022-12-17T11:49:29;25.80;;;9.27;;
4232;SDS011;2130;48.472;11.934;2022-12-17T11:52:23;23.60;;;9.20;;
4232;SDS011;2130;48.472;11.934;2022-12-17T11:55:29;22.57;;;7.43;;
4232;SDS011;2130;48.472;11.934;2022-12-17T11:58:24;21.90;;;7.80;;
4232;SDS011;2130;48.472;11.934;2022-12-17T12:01:38;20.53;;;6.90;;
4232;SDS011;2130;48.472;11.934;2022-12-17T12:04:35;23.93;;;7.70;;
4232;SDS011;2130;48.472;11.934;2022-12-17T12:07:33;29.03;;;7.20;;
4232;SDS011;2130;48.472;11.934;2022-12-17T12:10:47;26.60;;;7.47;;
4232;SDS011;2130;48.472;11.934;2022-12-17T12:14:12;23.07;;;7.73;;
4232;SDS011;2130;48.472;11.934;2022-12-17T12:17:14;24.27;;;8.90;;
4232;SDS011;2130;48.472;11.934;2022-12-17T12:20:19;21.80;;;7.00;;
4232;SDS011;2130;48.472;11.934;2022-12-17T12:23:22;23.43;;;7.00;;
4232;SDS011;2130;48.472;11.934;2022-12-17T12:26:37;23.37;;;6.73;;
4232;SDS011;2130;48.472;11.934;2022-12-17T12:29:29;24.67;;;9.40;;
4232;SDS011;2130;48.472;11.934;2022-12-17T12:32:24;29.33;;;7.83;;
4232;SDS011;2130;48.472;11.934;2022-12-17T12:35:22;21.80;;;7.73;;
4232;SDS011;2130;48.472;11.934;2022-12-17T12:38:17;24.73;;;7.27;;
4232;SDS011;2130;48.472;11.934;2022-12-17T12:41:16;28.83;;;10.10;;
4232;SDS011;2130;48.472;11.934;2022-12-17T12:44:07;28.23;;;8.70;;
4232;SDS011;2130;48.472;11.934;2022-12-17T12:47:24;32.33;;;9.30;;
4232;SDS011;2130;48.472;11.934;2022-12-17T12:50:16;23.43;;;8.30;;
4232;SDS011;2130;48.472;11.934;2022-12-17T12:53:09;27.63;;;7.87;;
4232;SDS011;2130;48.472;11.934;2022-12-17T12:55:59;21.33;;;7.40;;
4232;SDS011;2130;48.472;11.934;2022-12-17T12:58:49;28.73;;;7.60;;
4232;SDS011;2130;48.472;11.934;2022-12-17T13:02:17;23.73;;;8.30;;
4232;SDS011;2130;48.472;11.934;2022-12-17T13:05:20;27.20;;;8.90;;
4232;SDS011;2130;48.472;11.934;2022-12-17T13:08:03;21.33;;;8.00;;
4232;SDS011;2130;48.472;11.934;2022-12-17T13:10:50;24.27;;;8.53;;
4232;SDS011;2130;48.472;11.934;2022-12-17T13:13:29;28.00;;;8.20;;
4232;SDS011;2130;48.472;11.934;2022-12-17T13:16:03;24.00;;;8.07;;
4232;SDS011;2130;48.472;11.934;2022-12-17T13:18:45;25.33;;;7.80;;
4232;SDS011;2130;48.472;11.934;2022-12-17T13:21:30;29.80;;;9.10;;
4232;SDS011;2130;48.472;11.934;2022-12-17T13:24:10;25.97;;;8.83;;
4232;SDS011;2130;48.472;11.934;2022-12-17T13:26:44;24.10;;;7.73;;
4232;SDS011;2130;48.472;11.934;2022-12-17T13:29:23;26.00;;;7.77;;
4232;SDS011;2130;48.472;11.934;2022-12-17T13:32:00;21.80;;;8.03;;
4232;SDS011;2130;48.472;11.934;2022-12-17T13:34:41;24.70;;;7.20;;
4232;SDS011;2130;48.472;11.934;2022-12-17T13:37:19;21.27;;;7.97;;
4232;SDS011;2130;48.472;11.934;2022-12-17T13:39:56;27.40;;;7.20;;
4232;SDS011;2130;48.472;11.934;2022-12-17T13:42:30;20.53;;;7.40;;
4232;SDS011;2130;48.472;11.934;2022-12-17T13:45:11;30.77;;;8.87;;
4232;SDS011;2130;48.472;11.934;2022-12-17T13:47:42;22.07;;;6.80;;
4232;SDS011;2130;48.472;11.934;2022-12-17T13:50:19;21.43;;;8.43;;
4232;SDS011;2130;48.472;11.934;2022-12-17T13:53:08;20.57;;;8.50;;
4232;SDS011;2130;48.472;11.934;2022-12-17T13:55:38;20.50;;;7.57;;
4232;SDS011;2130;48.472;11.934;2022-12-17T13:58:19;21.77;;;7.10;;
4232;SDS011;2130;48.472;11.934;2022-12-17T14:00:49;22.50;;;7.73;;
4232;SDS011;2130;48.472;11.934;2022-12-17T14:03:31;22.90;;;7.77;;
4232;SDS011;2130;48.472;11.934;2022-12-17T14:09:19;28.60;;;8.60;;
4232;SDS011;2130;48.472;11.934;2022-12-17T14:12:37;22.93;;;7.43;;
4232;SDS011;2130;48.472;11.934;2022-12-17T14:15:21;24.50;;;7.13;;
4232;SDS011;2130;48.472;11.934;2022-12-17T14:17:52;28.53;;;7.23;;
4232;SDS011;2130;48.472;11.934;2022-12-17T14:20:22;22.53;;;8.00;;
4232;SDS011;2130;48.472;11.934;2022-12-17T14:22:55;27.83;;;6.70;;
4232;SDS011;2130;48.472;11.934;2022-12-17T14:25:32;19.23;;;6.03;;
4232;SDS011;2130;48.472;11.934;2022-12-17T14:28:18;25.00;;;7.00;;
4232;SDS011;2130;48.472;11.934;2022-12-17T14:30:49;26.47;;;7.33;;
4232;SDS011;2130;48.472;11.934;2022-12-17T14:33:42;23.80;;;7.93;;
4232;SDS011;2130;48.472;11.934;2022-12-17T14:36:16;20.17;;;7.67;;
4232;SDS011;2130;48.472;11.934;2022-12-17T14:38:52;23.03;;;8.00;;
4232;SDS011;2130;48.472;11.934;2022-12-17T14:41:23;21.97;;;7.63;;
4232;SDS011;2130;48.472;11.934;2022-12-17T14:44:15;24.43;;;8.30;;
4232;SDS011;2130;48.472;11.934;2022-12-17T14:47:05;21.07;;;7.83;;
4232;SDS011;2130;48.472;11.934;2022-12-17T14:49:47;25.03;;;7.43;;
4232;SDS011;2130;48.472;11.934;2022-12-17T14:52:26;22.37;;;8.97;;
4232;SDS011;2130;48.472;11.934;2022-12-17T14:55:01;27.00;;;9.93;;
4232;SDS011;2130;48.472;11.934;2022-12-17T14:57:51;26.73;;;10.00;;
4232;SDS011;2130;48.472;11.934;2022-12-17T15:00:21;22.40;;;9.17;;
4232;SDS011;2130;48.472;11.934;2022-12-17T15:02:53;25.23;;;9.50;;
4232;SDS011;2130;48.472;11.934;2022-12-17T15:05:26;23.60;;;9.37;;
4232;SDS011;2130;48.472;11.934;2022-12-17T15:08:01;22.20;;;9.13;;
4232;SDS011;2130;48.472;11.934;2022-12-17T15:10:35;24.50;;;9.00;;
4232;SDS011;2130;48.472;11.934;2022-12-17T15:13:08;28.73;;;9.40;;
4232;SDS011;2130;48.472;11.934;2022-12-17T15:15:43;28.23;;;8.47;;
4232;SDS011;2130;48.472;11.934;2022-12-17T15:18:13;28.63;;;10.27;;
4232;SDS011;2130;48.472;11.934;2022-12-17T15:20:43;25.63;;;10.33;;
4232;SDS011;2130;48.472;11.934;2022-12-17T15:23:15;26.80;;;10.43;;
4232;SDS011;2130;48.472;11.934;2022-12-17T15:26:01;29.10;;;9.37;;
4232;SDS011;2130;48.472;11.934;2022-12-17T15:28:39;32.13;;;10.20;;
4232;SDS011;2130;48.472;11.934;2022-12-17T15:31:33;26.30;;;9.30;;
4232;SDS011;2130;48.472;11.934;2022-12-17T15:34:12;27.27;;;10.20;;
4232;SDS011;2130;48.472;11.934;2022-12-17T15:36:58;23.40;;;9.50;;
4232;SDS011;2130;48.472;11.934;2022-12-17T15:39:41;28.87;;;10.40;;
4232;SDS011;2130;48.472;11.934;2022-12-17T15:42:13;25.07;;;10.57;;
4232;SDS011;2130;48.472;11.934;2022-12-17T15:45:03;33.57;;;11.43;;
4232;SDS011;2130;48.472;11.934;2022-12-17T15:47:43;24.70;;;9.03;;
4232;SDS011;2130;48.472;11.934;2022-12-17T15:50:30;32.57;;;9.57;;
4232;SDS011;2130;48.472;11.934;2022-12-17T15:53:20;24.10;;;8.40;;
4232;SDS011;2130;48.472;11.934;2022-12-17T15:55:57;26.60;;;11.10;;
4232;SDS011;2130;48.472;11.934;2022-12-17T15:59:15;30.13;;;11.37;;
4232;SDS011;2130;48.472;11.934;2022-12-17T16:02:10;30.70;;;11.10;;
4232;SDS011;2130;48.472;11.934;2022-12-17T16:04:46;38.43;;;11.87;;
4232;SDS011;2130;48.472;11.934;2022-12-17T16:07:31;31.13;;;10.17;;
4232;SDS011;2130;48.472;11.934;2022-12-17T16:10:32;20.17;;;7.50;;
4232;SDS011;2130;48.472;11.934;2022-12-17T16:13:17;20.03;;;6.60;;
4232;SDS011;2130;48.472;11.934;2022-12-17T16:16:18;22.60;;;6.20;;
4232;SDS011;2130;48.472;11.934;2022-12-17T16:18:55;23.47;;;7.67;;
4232;SDS011;2130;48.472;11.934;2022-12-17T16:21:31;22.20;;;8.10;;
4232;SDS011;2130;48.472;11.934;2022-12-17T16:24:32;22.60;;;8.40;;
4232;SDS011;2130;48.472;11.934;2022-12-17T16:27:08;21.40;;;8.90;;
4232;SDS011;2130;48.472;11.934;2022-12-17T16:30:03;21.73;;;9.17;;
4232;SDS011;2130;48.472;11.934;2022-12-17T16:32:49;37.23;;;12.27;;
4232;SDS011;2130;48.472;11.934;2022-12-17T16:35:35;36.10;;;11.77;;
4232;SDS011;2130;48.472;11.934;2022-12-17T16:38:42;37.33;;;10.07;;
4232;SDS011;2130;48.472;11.934;2022-12-17T16:41:24;19.03;;;7.97;;
4232;SDS011;2130;48.472;11.934;2022-12-17T16:44:22;15.77;;;6.37;;
4232;SDS011;2130;48.472;11.934;2022-12-17T16:47:09;19.23;;;6.90;;
4232;SDS011;2130;48.472;11.934;2022-12-17T16:49:46;24.33;;;8.13;;
4232;SDS011;2130;48.472;11.934;2022-12-17T16:52:32;16.40;;;6.50;;
4232;SDS011;2130;48.472;11.934;2022-12-17T16:55:08;23.63;;;7.77;;
4232;SDS011;2130;48.472;11.934;2022-12-17T16:58:05;21.23;;;7.60;;
4232;SDS011;2130;48.472;11.934;2022-12-17T17:00:53;16.27;;;6.57;;
4232;SDS011;2130;48.472;11.934;2022-12-17T17:03:46;17.00;;;8.30;;
4232;SDS011;2130;48.472;11.934;2022-12-17T17:06:38;28.93;;;10.40;;
4232;SDS011;2130;48.472;11.934;2022-12-17T17:09:42;24.43;;;8.50;;
4232;SDS011;2130;48.472;11.934;2022-12-17T17:12:28;20.73;;;6.63;;
4232;SDS011;2130;48.472;11.934;2022-12-17T17:15:09;14.23;;;6.40;;
4232;SDS011;2130;48.472;11.934;2022-12-17T17:17:59;15.33;;;7.07;;
4232;SDS011;2130;48.472;11.934;2022-12-17T17:20:46;17.27;;;6.20;;
4232;SDS011;2130;48.472;11.934;2022-12-17T17:23:30;15.83;;;7.70;;
4232;SDS011;2130;48.472;11.934;2022-12-17T17:26:18;22.47;;;10.70;;
4232;SDS011;2130;48.472;11.934;2022-12-17T17:29:06;20.00;;;9.63;;
4232;SDS011;2130;48.472;11.934;2022-12-17T17:32:05;20.53;;;8.47;;
4232;SDS011;2130;48.472;11.934;2022-12-17T17:35:00;28.50;;;8.47;;
4232;SDS011;2130;48.472;11.934;2022-12-17T17:37:49;12.73;;;6.47;;
4232;SDS011;2130;48.472;11.934;2022-12-17T17:40:57;18.33;;;8.37;;
4232;SDS011;2130;48.472;11.934;2022-12-17T17:44:06;14.53;;;6.57;;
4232;SDS011;2130;48.472;11.934;2022-12-17T17:47:11;15.17;;;7.90;;
4232;SDS011;2130;48.472;11.934;2022-12-17T17:50:07;12.27;;;5.80;;